createdAt,value
2023-02-24T00:02:15.004Z,100691.16
2023-02-24T00:04:41.867Z,100678.28
2023-02-24T00:07:15.001Z,100702.28
2023-02-24T00:09:41.554Z,100684.16
2023-02-24T00:12:13.013Z,100623.72
2023-02-24T00:14:41.976Z,100571.94
2023-02-24T00:17:09.278Z,100737.59
2023-02-24T00:19:37.009Z,100635.84
2023-02-24T00:22:06.150Z,100700.56
2023-02-24T00:24:34.784Z,100665.97
2023-02-24T00:27:08.467Z,100818.69
2023-02-24T00:29:37.545Z,100760.03
2023-02-24T00:32:09.980Z,100774.69
2023-02-24T00:34:37.709Z,100707.28
2023-02-24T00:37:06.892Z,100764.31
2023-02-24T00:39:35.256Z,100743.47
2023-02-24T00:42:04.934Z,100628.75
2023-02-24T00:44:36.861Z,100623.50
2023-02-24T00:47:05.210Z,100548.41
2023-02-24T00:49:32.948Z,100765.03
2023-02-24T00:52:00.034Z,100664.16
2023-02-24T00:54:29.610Z,100752.09
2023-02-24T00:56:57.031Z,100518.25
2023-02-24T00:59:26.617Z,100571.75
2023-02-24T01:01:54.621Z,100532.91
2023-02-24T01:04:21.829Z,100669.06
2023-02-24T01:06:51.213Z,100739.78
2023-02-24T01:09:20.463Z,100680.25
2023-02-24T01:12:07.964Z,100733.13
2023-02-24T01:14:36.116Z,100652.81
2023-02-24T01:17:04.131Z,100621.69
2023-02-24T01:19:32.631Z,100757.19
2023-02-24T01:22:01.403Z,100678.66
2023-02-24T01:24:30.639Z,100747.72
2023-02-24T01:26:59.803Z,100730.38
2023-02-24T01:29:26.401Z,100472.53
2023-02-24T01:31:57.736Z,100643.38
2023-02-24T01:37:48.245Z,100731.69
2023-02-24T01:40:20.473Z,100652.34
2023-02-24T01:42:47.605Z,100477.97
2023-02-24T01:45:19.126Z,100698.03
2023-02-24T01:47:47.273Z,100633.28
2023-02-24T01:50:16.181Z,100744.69
2023-02-24T01:52:46.855Z,100744.56
2023-02-24T01:55:22.361Z,100494.34
2023-02-24T01:57:53.417Z,100550.47
2023-02-24T02:00:40.338Z,100484.13
2023-02-24T02:03:13.298Z,100695.53
2023-02-24T02:05:41.361Z,100637.69
2023-02-24T02:08:09.224Z,100680.22
2023-02-24T02:10:39.173Z,100577.34
2023-02-24T02:13:08.282Z,100651.47
2023-02-24T02:15:41.515Z,100627.38
2023-02-24T02:18:35.476Z,100594.56
2023-02-24T02:21:34.392Z,100716.97
2023-02-24T02:24:27.364Z,100713.59
2023-02-24T02:27:21.032Z,100706.56
2023-02-24T02:30:06.480Z,100700.69
2023-02-24T02:32:43.610Z,100668.00
2023-02-24T02:35:23.693Z,100567.78
2023-02-24T02:38:15.139Z,100477.09
2023-02-24T02:40:53.040Z,100694.53
2023-02-24T02:43:33.196Z,100440.88
2023-02-24T02:46:14.765Z,100570.41
2023-02-24T02:48:48.731Z,100535.88
2023-02-24T02:51:24.591Z,100557.28
2023-02-24T02:54:01.356Z,100607.28
2023-02-24T02:56:37.643Z,100465.81
2023-02-24T02:59:06.708Z,100397.66
2023-02-24T03:01:37.704Z,100451.09
2023-02-24T03:04:08.484Z,100437.34
2023-02-24T03:06:43.675Z,100555.47
2023-02-24T03:09:16.330Z,100509.75
2023-02-24T03:11:53.070Z,100525.34
2023-02-24T03:14:26.636Z,100513.28
2023-02-24T03:16:55.860Z,100489.91
2023-02-24T03:19:30.996Z,100505.50
2023-02-24T03:22:27.590Z,100566.72
2023-02-24T03:24:55.398Z,100609.91
2023-02-24T03:27:58.122Z,100525.47
2023-02-24T03:30:32.596Z,100491.69
2023-02-24T03:33:09.868Z,100608.22
2023-02-24T03:35:39.667Z,100628.94
2023-02-24T03:38:06.542Z,100621.19
2023-02-24T03:40:35.920Z,100404.66
2023-02-24T03:43:32.561Z,100611.56
2023-02-24T03:46:10.580Z,100558.22
2023-02-24T03:48:46.766Z,100483.97
2023-02-24T03:51:22.043Z,100459.78
2023-02-24T03:53:48.543Z,100539.09
2023-02-24T03:57:02.928Z,100601.13
2023-02-24T04:00:20.436Z,100616.75
2023-02-24T04:03:09.855Z,100439.16
2023-02-24T04:05:48.920Z,100344.25
2023-02-24T04:08:25.801Z,100330.66
2023-02-24T04:11:05.322Z,100473.56
2023-02-24T04:13:35.616Z,100540.88
2023-02-24T04:16:36.466Z,100612.41
2023-02-24T04:19:09.091Z,100442.56
2023-02-24T04:21:38.431Z,100371.84
2023-02-24T04:26:58.973Z,100590.75
2023-02-24T04:29:38.734Z,100564.91
2023-02-24T04:32:11.512Z,100485.56
2023-02-24T04:34:40.311Z,100509.84
2023-02-24T04:37:07.234Z,100341.69
2023-02-24T04:39:39.788Z,100475.28
2023-02-24T04:42:07.062Z,100409.84
2023-02-24T04:44:33.863Z,100296.09
2023-02-24T04:47:00.796Z,100362.44
2023-02-24T04:49:27.718Z,100423.50
2023-02-24T04:51:54.144Z,100542.56
2023-02-24T04:54:21.012Z,100394.16
2023-02-24T04:56:50.924Z,100308.81
2023-02-24T04:59:22.194Z,100383.88
2023-02-24T05:01:52.886Z,100464.88
2023-02-24T05:04:22.592Z,100537.16
2023-02-24T05:06:49.228Z,100386.28
2023-02-24T05:09:17.982Z,100352.75
2023-02-24T05:11:46.623Z,100417.34
2023-02-24T05:14:14.590Z,100540.59
2023-02-24T05:16:43.287Z,100388.94
2023-02-24T05:19:34.139Z,100391.50
2023-02-24T05:22:05.522Z,100559.59
2023-02-24T05:24:31.958Z,100452.63
2023-02-24T05:27:03.601Z,100421.59
2023-02-24T05:29:33.013Z,100492.41
2023-02-24T05:32:00.492Z,100459.66
2023-02-24T05:34:30.576Z,100452.63
2023-02-24T05:36:59.212Z,100397.63
2023-02-24T05:39:26.357Z,100435.44
2023-02-24T05:41:54.646Z,100521.66
2023-02-24T05:44:23.560Z,100514.78
2023-02-24T05:46:56.549Z,100513.16
2023-02-24T05:49:32.959Z,100530.41
2023-02-24T05:52:01.864Z,100439.91
2023-02-24T05:54:30.479Z,100514.00
2023-02-24T05:57:02.672Z,100517.41
2023-02-24T05:59:33.210Z,100499.31
2023-02-24T06:02:06.822Z,100515.78
2023-02-24T06:04:40.638Z,100507.03
2023-02-24T06:07:20.913Z,100326.91
2023-02-24T06:09:53.657Z,100253.69
2023-02-24T06:12:22.170Z,100467.31
2023-02-24T06:14:48.615Z,100463.06
2023-02-24T06:17:16.957Z,100493.13
2023-02-24T06:19:44.813Z,100254.50
2023-02-24T06:22:16.213Z,100381.81
2023-02-24T06:24:45.517Z,100357.84
2023-02-24T06:27:17.906Z,100455.13
2023-02-24T06:29:51.604Z,100448.19
2023-02-24T06:32:23.848Z,100340.50
2023-02-24T06:34:51.846Z,100475.78
2023-02-24T06:37:18.330Z,100337.13
2023-02-24T06:39:45.229Z,100449.19
2023-02-24T06:42:12.877Z,100374.22
2023-02-24T06:44:40.983Z,100471.50
2023-02-24T06:47:10.879Z,100307.84
2023-02-24T06:49:37.508Z,100438.66
2023-02-24T06:52:04.535Z,100472.50
2023-02-24T06:54:37.769Z,100302.72
2023-02-24T06:57:04.487Z,100365.63
2023-02-24T06:59:32.340Z,100356.13
2023-02-24T07:02:01.931Z,100288.97
2023-02-24T07:04:29.164Z,100419.81
2023-02-24T07:07:02.914Z,100337.94
2023-02-24T07:09:41.043Z,100413.81
2023-02-24T07:12:07.959Z,100374.97
2023-02-24T07:14:36.909Z,100325.88
2023-02-24T07:17:03.633Z,100324.97
2023-02-24T07:19:32.390Z,100290.63
2023-02-24T07:22:00.897Z,100458.47
2023-02-24T07:24:33.315Z,100466.22
2023-02-24T07:27:04.065Z,100342.16
2023-02-24T07:29:32.448Z,100402.53
2023-02-24T07:32:05.455Z,100330.06
2023-02-24T07:34:33.598Z,100292.22
2023-02-24T07:37:07.801Z,100368.75
2023-02-24T07:39:36.868Z,100429.94
2023-02-24T07:42:04.085Z,100420.56
2023-02-24T07:44:30.689Z,100230.31
2023-02-24T07:46:59.143Z,100317.06
2023-02-24T07:49:27.768Z,100418.72
2023-02-24T07:51:57.855Z,100404.13
2023-02-24T07:54:27.705Z,100238.69
2023-02-24T07:56:57.731Z,100341.00
2023-02-24T07:59:38.075Z,100404.47
2023-02-24T08:02:07.577Z,100266.00
2023-02-24T08:04:36.223Z,100407.25
2023-02-24T08:07:04.098Z,100402.22
2023-02-24T08:09:45.819Z,100348.03
2023-02-24T08:12:21.122Z,100398.63
2023-02-24T08:14:54.263Z,100404.53
2023-02-24T08:17:26.275Z,100390.78
2023-02-24T08:20:14.556Z,100348.47
2023-02-24T08:22:46.994Z,100390.06
2023-02-24T08:25:19.177Z,100387.19
2023-02-24T08:28:06.401Z,100383.06
2023-02-24T08:30:44.827Z,100286.34
2023-02-24T08:33:20.503Z,100240.63
2023-02-24T08:35:52.374Z,100365.72
2023-02-24T08:39:24.458Z,100316.31
2023-02-24T08:41:54.875Z,100268.22
2023-02-24T08:44:21.324Z,100355.13
2023-02-24T08:46:49.974Z,100183.56
2023-02-24T08:49:17.160Z,100233.59
2023-02-24T08:51:48.777Z,100352.53
2023-02-24T08:54:27.598Z,100319.41
2023-02-24T08:56:56.435Z,100163.06
2023-02-24T08:59:59.180Z,100224.84
2023-02-24T09:02:29.251Z,100272.72
2023-02-24T09:05:03.685Z,100279.09
2023-02-24T09:07:36.463Z,100196.28
2023-02-24T09:10:11.622Z,100312.78
2023-02-24T09:13:10.818Z,100315.81
2023-02-24T09:15:41.502Z,100290.34
2023-02-24T09:18:08.039Z,100271.84
2023-02-24T09:20:53.124Z,100210.09
2023-02-24T09:23:29.710Z,100167.25
2023-02-24T09:25:56.958Z,100307.31
2023-02-24T09:28:32.717Z,100181.31
2023-02-24T09:31:04.736Z,100299.03
2023-02-24T09:34:01.981Z,100273.03
2023-02-24T09:36:28.390Z,100254.47
2023-02-24T09:39:00.449Z,100277.38
2023-02-24T09:42:17.831Z,100166.50
2023-02-24T09:44:52.597Z,100098.22
2023-02-24T09:47:57.308Z,100282.59
2023-02-24T09:51:02.689Z,100277.91
2023-02-24T09:53:49.203Z,100282.91
2023-02-24T09:56:28.544Z,100224.78
2023-02-24T09:59:20.730Z,100239.81
2023-02-24T10:02:28.110Z,100246.19
2023-02-24T10:05:07.018Z,100153.56
2023-02-24T10:07:40.857Z,100250.66
2023-02-24T10:10:21.015Z,100167.72
2023-02-24T10:12:52.621Z,100231.19
2023-02-24T10:15:46.779Z,100186.59
2023-02-24T10:18:29.707Z,100233.00
2023-02-24T10:21:06.635Z,100121.69
2023-02-24T10:24:16.092Z,100206.06
2023-02-24T10:27:01.310Z,100141.44
2023-02-24T10:29:55.554Z,100223.22
2023-02-24T10:32:47.855Z,100218.13
2023-02-24T10:35:17.499Z,100121.09
2023-02-24T10:37:44.920Z,100121.53
2023-02-24T10:40:17.419Z,100107.84
2023-02-24T10:42:48.738Z,100026.72
2023-02-24T10:45:27.366Z,100205.81
2023-02-24T10:48:05.237Z,100138.69
2023-02-24T10:50:55.216Z,100129.34
2023-02-24T10:53:29.657Z,99979.03
2023-02-24T10:56:22.674Z,100166.63
2023-02-24T10:59:20.412Z,100168.00
2023-02-24T11:01:59.236Z,100183.06
2023-02-24T11:05:02.845Z,100012.41
2023-02-24T11:07:53.552Z,100160.63
2023-02-24T11:10:26.241Z,100122.44
2023-02-24T11:13:14.164Z,100123.22
2023-02-24T11:16:11.025Z,100162.91
2023-02-24T11:18:39.260Z,100168.66
2023-02-24T11:21:10.740Z,100068.25
2023-02-24T11:23:44.144Z,100140.56
2023-02-24T11:26:33.890Z,100016.78
2023-02-24T11:29:32.374Z,100094.28
2023-02-24T11:32:30.224Z,100110.19
2023-02-24T11:35:04.226Z,100146.63
2023-02-24T11:37:40.677Z,100138.31
2023-02-24T11:40:27.680Z,100078.69
2023-02-24T11:43:11.719Z,100125.44
2023-02-24T11:45:41.020Z,100134.16
2023-02-24T11:48:19.901Z,99922.88
2023-02-24T11:50:55.632Z,100053.06
2023-02-24T11:53:49.357Z,100093.34
2023-02-24T11:56:23.012Z,100092.91
2023-02-24T11:58:49.404Z,100087.44
2023-02-24T12:01:35.226Z,99906.50
2023-02-24T12:04:10.536Z,100083.81
2023-02-24T12:06:56.831Z,99897.69
2023-02-24T12:09:29.035Z,100065.81
2023-02-24T12:12:23.545Z,100065.47
2023-02-24T12:18:24.328Z,100021.88
2023-02-24T12:21:13.855Z,100058.66
2023-02-24T12:23:46.146Z,99954.00
2023-02-24T12:27:11.434Z,100053.28
2023-02-24T12:34:08.539Z,100036.72
2023-02-24T12:36:56.920Z,100036.53
2023-02-24T12:39:41.944Z,99983.75
2023-02-24T12:42:19.274Z,99901.25
2023-02-24T12:45:16.683Z,100030.13
2023-02-24T12:47:56.442Z,100018.34
2023-02-24T12:50:44.806Z,99890.84
2023-02-24T12:53:57.520Z,100021.50
2023-02-24T12:56:46.883Z,100016.25
2023-02-24T12:59:20.231Z,99941.84
2023-02-24T13:02:06.168Z,100002.00
2023-02-24T13:04:39.068Z,100000.00
2023-02-24T13:07:24.267Z,99993.38
2023-02-24T13:10:24.577Z,99960.72
2023-02-24T13:12:59.510Z,99998.81
2023-02-24T13:15:31.148Z,99986.69
2023-02-24T13:17:58.417Z,99881.38
2023-02-24T13:20:26.446Z,99974.44
2023-02-24T13:22:53.086Z,99875.34
2023-02-24T13:25:30.509Z,99954.03
2023-02-24T13:28:00.183Z,99976.06
2023-02-24T13:30:33.219Z,99909.00
2023-02-24T13:33:21.888Z,99991.53
2023-02-24T13:35:52.221Z,99946.28
2023-02-24T13:38:30.800Z,99960.44
2023-02-24T13:41:27.552Z,99949.19
2023-02-24T13:43:58.793Z,99955.88
2023-02-24T13:46:29.667Z,99806.31
2023-02-24T13:49:22.894Z,99947.97
2023-02-24T13:51:59.306Z,99917.78
2023-02-24T13:54:38.744Z,99934.59
2023-02-24T13:57:33.122Z,99934.03
2023-02-24T14:00:21.872Z,99925.91
2023-02-24T14:02:49.238Z,99913.41
2023-02-24T14:05:27.607Z,99815.69
2023-02-24T14:07:55.412Z,99852.16
2023-02-24T14:10:26.050Z,99883.22
2023-02-24T14:13:29.155Z,99923.41
2023-02-24T14:15:56.615Z,99761.47
2023-02-24T14:18:28.161Z,99799.03
2023-02-24T14:20:56.771Z,99900.28
2023-02-24T14:23:28.786Z,99809.13
2023-02-24T14:26:03.174Z,99716.84
2023-02-24T14:28:36.308Z,99917.47
2023-02-24T14:31:10.888Z,99757.94
2023-02-24T14:33:40.377Z,99810.69
2023-02-24T14:36:25.509Z,99798.94
2023-02-24T14:39:14.643Z,99879.16
2023-02-24T14:41:43.444Z,99847.09
2023-02-24T14:44:23.787Z,99895.34
2023-02-24T14:47:00.219Z,99846.66
2023-02-24T14:49:29.452Z,99692.63
2023-02-24T14:52:16.782Z,99876.84
2023-02-24T14:54:50.461Z,99839.66
2023-02-24T14:57:24.715Z,99816.66
2023-02-24T15:00:00.061Z,99890.13
2023-02-24T15:02:33.341Z,99873.97
2023-02-24T15:05:00.353Z,99844.78
2023-02-24T15:07:30.489Z,99763.78
2023-02-24T15:10:25.052Z,99723.09
2023-02-24T15:13:00.956Z,99651.88
2023-02-24T15:15:38.112Z,99856.34
2023-02-24T15:18:15.042Z,99865.72
2023-02-24T15:20:41.632Z,99830.69
2023-02-24T15:23:31.086Z,99799.13
2023-02-24T15:25:58.327Z,99838.00
2023-02-24T15:28:36.261Z,99807.25
2023-02-24T15:31:18.671Z,99821.56
2023-02-24T15:33:54.374Z,99829.81
2023-02-24T15:36:34.537Z,99665.25
2023-02-24T15:39:05.364Z,99708.44
2023-02-24T15:41:46.564Z,99829.03
2023-02-24T15:44:31.399Z,99771.53
2023-02-24T15:46:59.994Z,99682.91
2023-02-24T15:49:26.439Z,99738.13
2023-02-24T15:51:55.813Z,99788.88
2023-02-24T15:54:30.391Z,99761.31
2023-02-24T15:57:06.843Z,99811.94
2023-02-24T15:59:33.864Z,99761.31
2023-02-24T16:02:00.276Z,99746.53
2023-02-24T16:04:27.748Z,99782.94
2023-02-24T16:09:56.549Z,99675.28
2023-02-24T16:12:33.123Z,99689.31
2023-02-24T16:15:04.080Z,99799.69
2023-02-24T16:17:40.933Z,99812.00
2023-02-24T16:20:13.546Z,99621.38
2023-02-24T16:22:40.174Z,99676.94
2023-02-24T16:25:08.790Z,99666.22
2023-02-24T16:27:35.971Z,99694.38
2023-02-24T16:30:02.941Z,99709.28
2023-02-24T16:32:29.653Z,99587.94
2023-02-24T16:34:57.056Z,99632.03
2023-02-24T16:37:28.649Z,99607.94
2023-02-24T16:39:56.764Z,99775.00
2023-02-24T16:42:23.232Z,99639.00
2023-02-24T16:44:50.017Z,99719.25
2023-02-24T16:47:23.435Z,99821.63
2023-02-24T16:50:04.572Z,99760.84
2023-02-24T16:52:31.016Z,99652.81
2023-02-24T16:54:58.588Z,99798.47
2023-02-24T16:57:25.788Z,99729.69
2023-02-24T16:59:52.621Z,99575.59
2023-02-24T17:02:22.485Z,99664.91
2023-02-24T17:04:49.139Z,99690.00
2023-02-24T17:07:16.277Z,99630.53
2023-02-24T17:09:42.692Z,99694.09
2023-02-24T17:12:12.790Z,99774.00
2023-02-24T17:14:41.930Z,99669.97
2023-02-24T17:17:08.476Z,99664.56
2023-02-24T17:19:34.950Z,99648.47
2023-02-24T17:22:01.476Z,99695.88
2023-02-24T17:24:31.044Z,99716.91
2023-02-24T17:26:59.808Z,99716.13
2023-02-24T17:29:26.792Z,99784.41
2023-02-24T17:31:53.431Z,99824.94
2023-02-24T17:34:21.693Z,99810.34
2023-02-24T17:36:48.068Z,99706.06
2023-02-24T17:39:14.425Z,99767.81
2023-02-24T17:41:40.867Z,99798.81
2023-02-24T17:44:07.254Z,99824.47
2023-02-24T17:46:33.656Z,99671.31
2023-02-24T17:49:13.503Z,99649.88
2023-02-24T17:51:40.016Z,99802.53
2023-02-24T17:54:08.485Z,99719.91
2023-02-24T17:56:35.101Z,99731.78
2023-02-24T17:59:01.536Z,99679.09
2023-02-24T18:01:28.633Z,99845.16
2023-02-24T18:03:57.357Z,99843.09
2023-02-24T18:06:24.521Z,99615.91
2023-02-24T18:08:51.063Z,99807.22
2023-02-24T18:11:19.612Z,99609.97
2023-02-24T18:13:47.477Z,99769.00
2023-02-24T18:16:15.289Z,99758.66
2023-02-24T18:18:41.995Z,99744.28
2023-02-24T18:21:08.715Z,99826.06
2023-02-24T18:23:36.511Z,99759.88
2023-02-24T18:26:04.534Z,99707.06
2023-02-24T18:28:32.339Z,99845.97
2023-02-24T18:31:00.429Z,99828.75
2023-02-24T18:33:27.409Z,99825.06
2023-02-24T18:36:01.061Z,99868.03
2023-02-24T18:38:30.697Z,99671.03
2023-02-24T18:41:05.185Z,99623.28
2023-02-24T18:43:33.049Z,99847.50
2023-02-24T18:46:01.611Z,99819.25
2023-02-24T18:48:29.746Z,99844.63
2023-02-24T18:51:00.585Z,99790.66
2023-02-24T18:53:30.159Z,99800.31
2023-02-24T18:56:05.629Z,99761.31
2023-02-24T18:58:32.110Z,99793.97
2023-02-24T19:00:59.575Z,99866.75
2023-02-24T19:03:26.118Z,99762.09
2023-02-24T19:05:52.616Z,99821.69
2023-02-24T19:08:19.305Z,99790.19
2023-02-24T19:10:48.103Z,99853.56
2023-02-24T19:13:14.743Z,99751.88
2023-02-24T19:15:41.168Z,99905.97
2023-02-24T19:18:07.707Z,99860.38
2023-02-24T19:20:34.125Z,99734.50
2023-02-24T19:23:01.294Z,99860.81
2023-02-24T19:25:27.748Z,99802.72
2023-02-24T19:27:54.259Z,99883.34
2023-02-24T19:30:20.824Z,99780.31
2023-02-24T19:32:47.390Z,99796.88
2023-02-24T19:35:13.995Z,99867.69
2023-02-24T19:37:40.465Z,99761.03
2023-02-24T19:40:07.342Z,99868.44
2023-02-24T19:42:33.956Z,99870.03
2023-02-24T19:45:00.462Z,99774.78
2023-02-24T19:47:27.043Z,99682.25
2023-02-24T19:49:53.537Z,99794.63
2023-02-24T19:52:20.007Z,99798.66
2023-02-24T19:54:46.472Z,99871.19
2023-02-24T19:57:12.910Z,99686.00
2023-02-24T19:59:39.583Z,99836.47
2023-02-24T20:02:06.864Z,99862.31
2023-02-24T20:04:33.554Z,99827.22
2023-02-24T20:07:00.027Z,99793.59
2023-02-24T20:09:26.955Z,99879.81
2023-02-24T20:11:54.727Z,99902.03
2023-02-24T20:14:21.352Z,99913.59
2023-02-24T20:16:48.032Z,99683.59
2023-02-24T20:19:15.575Z,99889.88
2023-02-24T20:21:44.748Z,99897.78
2023-02-24T20:24:14.101Z,99916.22
2023-02-24T20:26:42.355Z,99793.41
2023-02-24T20:29:09.385Z,99887.28
2023-02-24T20:31:36.027Z,99873.72
2023-02-24T20:34:08.939Z,99851.84
2023-02-24T20:36:35.559Z,99865.72
2023-02-24T20:39:02.291Z,99851.03
2023-02-24T20:41:32.996Z,99843.13
2023-02-24T20:43:59.714Z,99948.94
2023-02-24T20:46:30.249Z,99708.03
2023-02-24T20:49:01.459Z,99821.66
2023-02-24T20:51:29.393Z,99944.56
2023-02-24T20:53:58.502Z,99923.47
2023-02-24T20:56:28.097Z,99766.13
2023-02-24T20:59:05.995Z,99921.16
2023-02-24T21:01:36.772Z,99893.28
2023-02-24T21:04:03.688Z,99914.53
2023-02-24T21:06:32.992Z,99818.94
2023-02-24T21:08:59.761Z,99943.81
2023-02-24T21:11:26.921Z,99965.13
2023-02-24T21:13:56.091Z,99930.00
2023-02-24T21:16:24.532Z,99853.94
2023-02-24T21:18:53.972Z,99868.63
2023-02-24T21:21:20.926Z,99861.69
2023-02-24T21:23:47.934Z,99895.34
2023-02-24T21:26:14.550Z,99932.03
2023-02-24T21:28:40.982Z,99860.31
2023-02-24T21:31:12.648Z,99924.50
2023-02-24T21:33:39.275Z,99959.81
2023-02-24T21:36:13.432Z,99935.72
2023-02-24T21:38:41.100Z,99980.03
2023-02-24T21:41:14.915Z,99974.31
2023-02-24T21:43:42.477Z,99869.59
2023-02-24T21:46:09.142Z,99882.94
2023-02-24T21:48:36.979Z,99808.88
2023-02-24T21:51:08.391Z,99813.22
2023-02-24T21:53:38.303Z,99975.22
2023-02-24T21:56:19.464Z,99881.22
2023-02-24T21:58:52.003Z,99990.78
2023-02-24T22:01:24.419Z,99925.81
2023-02-24T22:03:59.290Z,99702.88
2023-02-24T22:06:31.714Z,99739.00
2023-02-24T22:08:59.529Z,99819.44
2023-02-24T22:11:25.997Z,99808.31
2023-02-24T22:13:52.824Z,99938.59
2023-02-24T22:16:22.150Z,99874.19
2023-02-24T22:18:49.391Z,99973.25
2023-02-24T22:21:18.406Z,99995.50
2023-02-24T22:23:47.565Z,99795.75
2023-02-24T22:26:15.097Z,99914.81
2023-02-24T22:28:49.605Z,99868.56
2023-02-24T22:31:19.368Z,99837.56
2023-02-24T22:33:46.231Z,99961.88
2023-02-24T22:36:19.261Z,99882.97
2023-02-24T22:38:46.667Z,99890.97
2023-02-24T22:41:19.281Z,99908.38
2023-02-24T22:43:45.851Z,99956.94
2023-02-24T22:46:15.314Z,100001.88
2023-02-24T22:48:42.056Z,99969.91
2023-02-24T22:51:10.834Z,99929.50
2023-02-24T22:53:40.209Z,99969.31
2023-02-24T22:56:08.158Z,99919.31
2023-02-24T22:58:34.535Z,99949.59
2023-02-24T23:01:00.947Z,99887.72
2023-02-24T23:03:30.931Z,99928.31
2023-02-24T23:05:59.150Z,99992.34
2023-02-24T23:08:27.512Z,99987.00
2023-02-24T23:10:55.983Z,99888.81
2023-02-24T23:13:22.463Z,100011.56
2023-02-24T23:18:36.976Z,100008.06
2023-02-24T23:21:06.271Z,100034.84
2023-02-24T23:23:33.881Z,100008.84
2023-02-24T23:26:00.435Z,99906.63
2023-02-24T23:28:27.795Z,99925.53
2023-02-24T23:31:04.450Z,99990.00
2023-02-24T23:33:30.900Z,99985.72
2023-02-24T23:36:03.189Z,100055.16
2023-02-24T23:38:39.249Z,99934.75
2023-02-24T23:41:10.426Z,100015.59
2023-02-24T23:43:39.848Z,99940.13
2023-02-24T23:46:08.649Z,100034.28
2023-02-24T23:48:36.125Z,100012.66
2023-02-24T23:51:08.152Z,100046.19
2023-02-24T23:53:42.898Z,100057.78
2023-02-24T23:56:20.610Z,100048.34
2023-02-24T23:58:52.438Z,100053.31
